KCLM

William R Fairchild International Airport

Port Angeles, Washington, USA
METAR KCLM 161353Z AUTO 25010KT 10SM FEW110 06/01 A3027 RMK AO2 SLP252 T00560011
Observed Flight Rules
Dec-16 @ 13:53 UTC (41 minutes ago) Visual Flight Rules
Wind Visibility Clouds
250° at 10 knots 10 miles
  • Few at 11,000' AGL
Temperatures Readings
Current 6°C / 43°F
Dewpoint 1°C / 34°F
Humidity 71%
Altimeter 30.27" Hg
Pressure 1025.2 hPa
Elevation 85
METAR KCLM 161353Z AUTO 25010KT 10SM FEW110 06/01 A3027 RMK AO2 SLP252 T00560011
Observed Flight Rules
Dec-16 @ 13:53 UTC
(41 minutes ago)
VFR
Wind Visibility
250° at 10 knots 10 miles
Clouds
  • Few at 11,000' AGL
Temperature Dewpoint
6°C / 43°F 1°C / 34°F
Humidity Altimeter Pressure
71% 30.27" Hg 1025.2 hPa